sensor_id;sensor_type;location;lat;lon;timestamp;P1;durP1;ratioP1;P2;durP2;ratioP2
42036;SDS011;30340;52.004;5.908;2022-11-25T00:00:54;9.38;;;2.85;;
42036;SDS011;30340;52.004;5.908;2022-11-25T00:03:31;8.50;;;3.25;;
42036;SDS011;30340;52.004;5.908;2022-11-25T00:05:56;12.32;;;3.72;;
42036;SDS011;30340;52.004;5.908;2022-11-25T00:08:31;10.05;;;2.95;;
42036;SDS011;30340;52.004;5.908;2022-11-25T00:10:59;12.27;;;3.30;;
42036;SDS011;30340;52.004;5.908;2022-11-25T00:13:25;10.00;;;2.97;;
42036;SDS011;30340;52.004;5.908;2022-11-25T00:15:51;9.13;;;2.90;;
42036;SDS011;30340;52.004;5.908;2022-11-25T00:18:16;10.15;;;2.70;;
42036;SDS011;30340;52.004;5.908;2022-11-25T00:20:42;9.75;;;3.03;;
42036;SDS011;30340;52.004;5.908;2022-11-25T00:23:07;10.57;;;2.95;;
42036;SDS011;30340;52.004;5.908;2022-11-25T00:25:33;10.32;;;3.40;;
42036;SDS011;30340;52.004;5.908;2022-11-25T00:27:58;9.77;;;3.22;;
42036;SDS011;30340;52.004;5.908;2022-11-25T00:30:24;9.20;;;2.58;;
42036;SDS011;30340;52.004;5.908;2022-11-25T00:32:50;12.00;;;3.20;;
42036;SDS011;30340;52.004;5.908;2022-11-25T00:35:17;7.38;;;2.42;;
42036;SDS011;30340;52.004;5.908;2022-11-25T00:37:42;11.32;;;3.50;;
42036;SDS011;30340;52.004;5.908;2022-11-25T00:40:08;11.93;;;4.68;;
42036;SDS011;30340;52.004;5.908;2022-11-25T00:42:34;7.85;;;3.58;;
42036;SDS011;30340;52.004;5.908;2022-11-25T00:45:18;9.82;;;3.30;;
42036;SDS011;30340;52.004;5.908;2022-11-25T00:47:44;6.50;;;2.40;;
42036;SDS011;30340;52.004;5.908;2022-11-25T00:50:09;9.85;;;2.80;;
42036;SDS011;30340;52.004;5.908;2022-11-25T00:52:35;11.48;;;2.92;;
42036;SDS011;30340;52.004;5.908;2022-11-25T00:55:01;10.38;;;3.55;;
42036;SDS011;30340;52.004;5.908;2022-11-25T00:57:27;6.80;;;2.10;;
42036;SDS011;30340;52.004;5.908;2022-11-25T00:59:53;8.90;;;3.03;;
42036;SDS011;30340;52.004;5.908;2022-11-25T01:02:20;9.80;;;2.70;;
42036;SDS011;30340;52.004;5.908;2022-11-25T01:04:46;7.75;;;2.47;;
42036;SDS011;30340;52.004;5.908;2022-11-25T01:07:11;7.28;;;2.50;;
42036;SDS011;30340;52.004;5.908;2022-11-25T01:09:37;9.75;;;2.92;;
42036;SDS011;30340;52.004;5.908;2022-11-25T01:12:03;8.77;;;2.78;;
42036;SDS011;30340;52.004;5.908;2022-11-25T01:14:29;11.52;;;2.92;;
42036;SDS011;30340;52.004;5.908;2022-11-25T01:16:54;10.68;;;2.80;;
42036;SDS011;30340;52.004;5.908;2022-11-25T01:19:20;9.82;;;3.40;;
42036;SDS011;30340;52.004;5.908;2022-11-25T01:21:45;9.90;;;2.33;;
42036;SDS011;30340;52.004;5.908;2022-11-25T01:24:14;10.23;;;2.97;;
42036;SDS011;30340;52.004;5.908;2022-11-25T01:26:41;8.27;;;2.60;;
42036;SDS011;30340;52.004;5.908;2022-11-25T01:29:11;10.02;;;2.67;;
42036;SDS011;30340;52.004;5.908;2022-11-25T01:31:38;9.18;;;2.85;;
42036;SDS011;30340;52.004;5.908;2022-11-25T01:34:10;12.00;;;3.10;;
42036;SDS011;30340;52.004;5.908;2022-11-25T01:36:41;9.32;;;2.40;;
42036;SDS011;30340;52.004;5.908;2022-11-25T01:39:10;11.05;;;3.00;;
42036;SDS011;30340;52.004;5.908;2022-11-25T01:41:40;8.13;;;2.80;;
42036;SDS011;30340;52.004;5.908;2022-11-25T01:44:07;11.15;;;3.17;;
42036;SDS011;30340;52.004;5.908;2022-11-25T01:47:21;8.85;;;2.63;;
42036;SDS011;30340;52.004;5.908;2022-11-25T01:49:33;15.50;;;3.10;;
42036;SDS011;30340;52.004;5.908;2022-11-25T01:52:26;12.57;;;3.20;;
42036;SDS011;30340;52.004;5.908;2022-11-25T01:55:11;6.28;;;2.30;;
42036;SDS011;30340;52.004;5.908;2022-11-25T02:00:11;10.45;;;2.80;;
42036;SDS011;30340;52.004;5.908;2022-11-25T02:02:38;10.55;;;2.80;;
42036;SDS011;30340;52.004;5.908;2022-11-25T02:05:07;13.77;;;2.72;;
42036;SDS011;30340;52.004;5.908;2022-11-25T02:07:38;10.45;;;2.83;;
42036;SDS011;30340;52.004;5.908;2022-11-25T02:10:08;8.02;;;2.40;;
42036;SDS011;30340;52.004;5.908;2022-11-25T02:12:38;9.60;;;2.70;;
42036;SDS011;30340;52.004;5.908;2022-11-25T02:15:05;13.77;;;3.25;;
42036;SDS011;30340;52.004;5.908;2022-11-25T02:17:31;8.63;;;2.53;;
42036;SDS011;30340;52.004;5.908;2022-11-25T02:25:31;10.25;;;2.58;;
42036;SDS011;30340;52.004;5.908;2022-11-25T02:28:12;10.95;;;2.80;;
42036;SDS011;30340;52.004;5.908;2022-11-25T02:30:39;8.00;;;2.70;;
42036;SDS011;30340;52.004;5.908;2022-11-25T02:33:05;9.05;;;3.05;;
42036;SDS011;30340;52.004;5.908;2022-11-25T02:35:35;8.45;;;2.65;;
42036;SDS011;30340;52.004;5.908;2022-11-25T02:40:32;9.65;;;3.33;;
42036;SDS011;30340;52.004;5.908;2022-11-25T02:43:01;10.02;;;2.63;;
42036;SDS011;30340;52.004;5.908;2022-11-25T02:45:32;9.38;;;2.47;;
42036;SDS011;30340;52.004;5.908;2022-11-25T02:48:21;11.82;;;2.60;;
42036;SDS011;30340;52.004;5.908;2022-11-25T02:50:48;12.55;;;3.13;;
42036;SDS011;30340;52.004;5.908;2022-11-25T02:53:13;8.60;;;2.63;;
42036;SDS011;30340;52.004;5.908;2022-11-25T02:55:40;12.02;;;2.95;;
42036;SDS011;30340;52.004;5.908;2022-11-25T02:58:05;8.43;;;2.50;;
42036;SDS011;30340;52.004;5.908;2022-11-25T03:00:32;9.70;;;2.90;;
42036;SDS011;30340;52.004;5.908;2022-11-25T03:02:57;9.23;;;2.72;;
42036;SDS011;30340;52.004;5.908;2022-11-25T03:05:23;8.80;;;2.50;;
42036;SDS011;30340;52.004;5.908;2022-11-25T03:07:49;9.43;;;2.88;;
42036;SDS011;30340;52.004;5.908;2022-11-25T03:10:15;13.80;;;2.83;;
42036;SDS011;30340;52.004;5.908;2022-11-25T03:12:40;11.95;;;2.78;;
42036;SDS011;30340;52.004;5.908;2022-11-25T03:15:06;11.57;;;2.70;;
42036;SDS011;30340;52.004;5.908;2022-11-25T03:17:32;9.35;;;2.72;;
42036;SDS011;30340;52.004;5.908;2022-11-25T03:19:58;6.47;;;2.15;;
42036;SDS011;30340;52.004;5.908;2022-11-25T03:22:23;11.13;;;2.53;;
42036;SDS011;30340;52.004;5.908;2022-11-25T03:24:49;8.98;;;2.88;;
42036;SDS011;30340;52.004;5.908;2022-11-25T03:27:15;11.40;;;3.15;;
42036;SDS011;30340;52.004;5.908;2022-11-25T03:29:41;12.20;;;3.40;;
42036;SDS011;30340;52.004;5.908;2022-11-25T03:32:06;10.50;;;2.97;;
42036;SDS011;30340;52.004;5.908;2022-11-25T03:34:32;13.48;;;3.20;;
42036;SDS011;30340;52.004;5.908;2022-11-25T03:36:57;11.50;;;2.70;;
42036;SDS011;30340;52.004;5.908;2022-11-25T03:39:23;10.38;;;2.50;;
42036;SDS011;30340;52.004;5.908;2022-11-25T03:41:49;9.60;;;2.60;;
42036;SDS011;30340;52.004;5.908;2022-11-25T03:44:14;6.70;;;2.35;;
42036;SDS011;30340;52.004;5.908;2022-11-25T03:46:40;8.10;;;2.13;;
42036;SDS011;30340;52.004;5.908;2022-11-25T03:49:05;7.55;;;2.40;;
42036;SDS011;30340;52.004;5.908;2022-11-25T03:51:31;11.57;;;4.22;;
42036;SDS011;30340;52.004;5.908;2022-11-25T03:53:57;11.20;;;2.83;;
42036;SDS011;30340;52.004;5.908;2022-11-25T03:56:22;8.70;;;2.70;;
42036;SDS011;30340;52.004;5.908;2022-11-25T03:58:48;7.65;;;2.38;;
42036;SDS011;30340;52.004;5.908;2022-11-25T04:01:13;10.10;;;2.88;;
42036;SDS011;30340;52.004;5.908;2022-11-25T04:03:39;8.30;;;2.50;;
42036;SDS011;30340;52.004;5.908;2022-11-25T04:06:04;7.30;;;2.40;;
42036;SDS011;30340;52.004;5.908;2022-11-25T04:08:30;9.38;;;2.45;;
42036;SDS011;30340;52.004;5.908;2022-11-25T04:10:55;8.23;;;2.20;;
42036;SDS011;30340;52.004;5.908;2022-11-25T04:13:21;9.90;;;2.33;;
42036;SDS011;30340;52.004;5.908;2022-11-25T04:15:47;7.68;;;2.65;;
42036;SDS011;30340;52.004;5.908;2022-11-25T04:18:14;9.85;;;2.40;;
42036;SDS011;30340;52.004;5.908;2022-11-25T04:20:41;7.13;;;2.42;;
42036;SDS011;30340;52.004;5.908;2022-11-25T04:23:07;8.98;;;2.58;;
42036;SDS011;30340;52.004;5.908;2022-11-25T04:25:34;8.50;;;2.60;;
42036;SDS011;30340;52.004;5.908;2022-11-25T04:28:00;8.75;;;2.55;;
42036;SDS011;30340;52.004;5.908;2022-11-25T04:30:26;9.05;;;2.58;;
42036;SDS011;30340;52.004;5.908;2022-11-25T04:32:52;12.52;;;2.90;;
42036;SDS011;30340;52.004;5.908;2022-11-25T04:35:17;12.55;;;2.83;;
42036;SDS011;30340;52.004;5.908;2022-11-25T04:37:43;7.65;;;2.50;;
42036;SDS011;30340;52.004;5.908;2022-11-25T04:40:08;9.30;;;2.53;;
42036;SDS011;30340;52.004;5.908;2022-11-25T04:42:34;13.32;;;2.72;;
42036;SDS011;30340;52.004;5.908;2022-11-25T04:45:04;8.10;;;2.50;;
42036;SDS011;30340;52.004;5.908;2022-11-25T04:47:32;6.88;;;2.13;;
42036;SDS011;30340;52.004;5.908;2022-11-25T04:49:57;7.45;;;2.40;;
42036;SDS011;30340;52.004;5.908;2022-11-25T04:52:23;7.50;;;2.20;;
42036;SDS011;30340;52.004;5.908;2022-11-25T04:54:49;10.52;;;2.88;;
42036;SDS011;30340;52.004;5.908;2022-11-25T04:57:15;9.40;;;2.70;;
42036;SDS011;30340;52.004;5.908;2022-11-25T04:59:41;12.07;;;3.45;;
42036;SDS011;30340;52.004;5.908;2022-11-25T05:02:21;9.95;;;2.70;;
42036;SDS011;30340;52.004;5.908;2022-11-25T05:04:49;7.40;;;2.42;;
42036;SDS011;30340;52.004;5.908;2022-11-25T05:07:17;8.63;;;2.28;;
42036;SDS011;30340;52.004;5.908;2022-11-25T05:09:43;8.05;;;2.42;;
42036;SDS011;30340;52.004;5.908;2022-11-25T05:12:11;6.03;;;2.20;;
42036;SDS011;30340;52.004;5.908;2022-11-25T05:14:38;9.05;;;2.50;;
42036;SDS011;30340;52.004;5.908;2022-11-25T05:17:04;6.88;;;1.92;;
42036;SDS011;30340;52.004;5.908;2022-11-25T05:19:31;9.73;;;2.60;;
42036;SDS011;30340;52.004;5.908;2022-11-25T05:21:59;11.40;;;2.47;;
42036;SDS011;30340;52.004;5.908;2022-11-25T05:24:25;7.55;;;2.50;;
42036;SDS011;30340;52.004;5.908;2022-11-25T05:26:51;10.30;;;2.60;;
42036;SDS011;30340;52.004;5.908;2022-11-25T05:29:16;10.85;;;2.65;;
42036;SDS011;30340;52.004;5.908;2022-11-25T05:31:42;7.78;;;2.28;;
42036;SDS011;30340;52.004;5.908;2022-11-25T05:34:07;7.32;;;2.55;;
42036;SDS011;30340;52.004;5.908;2022-11-25T05:36:33;6.57;;;2.25;;
42036;SDS011;30340;52.004;5.908;2022-11-25T05:38:59;5.13;;;2.03;;
42036;SDS011;30340;52.004;5.908;2022-11-25T05:41:25;4.60;;;2.10;;
42036;SDS011;30340;52.004;5.908;2022-11-25T05:43:51;8.23;;;2.17;;
42036;SDS011;30340;52.004;5.908;2022-11-25T05:46:18;10.15;;;2.72;;
42036;SDS011;30340;52.004;5.908;2022-11-25T05:48:43;8.70;;;2.70;;
42036;SDS011;30340;52.004;5.908;2022-11-25T05:51:09;9.48;;;3.33;;
42036;SDS011;30340;52.004;5.908;2022-11-25T05:53:35;6.50;;;2.40;;
42036;SDS011;30340;52.004;5.908;2022-11-25T05:56:01;10.00;;;2.65;;
42036;SDS011;30340;52.004;5.908;2022-11-25T05:58:29;8.75;;;2.67;;
42036;SDS011;30340;52.004;5.908;2022-11-25T06:00:56;7.88;;;2.50;;
42036;SDS011;30340;52.004;5.908;2022-11-25T06:03:28;6.43;;;2.15;;
42036;SDS011;30340;52.004;5.908;2022-11-25T06:05:57;9.43;;;2.60;;
42036;SDS011;30340;52.004;5.908;2022-11-25T06:08:23;7.47;;;2.30;;
42036;SDS011;30340;52.004;5.908;2022-11-25T06:10:50;8.10;;;2.50;;
42036;SDS011;30340;52.004;5.908;2022-11-25T06:13:16;8.13;;;2.30;;
42036;SDS011;30340;52.004;5.908;2022-11-25T06:15:43;9.32;;;2.60;;
42036;SDS011;30340;52.004;5.908;2022-11-25T06:18:09;6.45;;;2.20;;
42036;SDS011;30340;52.004;5.908;2022-11-25T06:20:36;9.20;;;2.78;;
42036;SDS011;30340;52.004;5.908;2022-11-25T06:23:02;9.13;;;2.63;;
42036;SDS011;30340;52.004;5.908;2022-11-25T06:25:28;9.23;;;2.85;;
42036;SDS011;30340;52.004;5.908;2022-11-25T06:27:53;5.40;;;2.33;;
42036;SDS011;30340;52.004;5.908;2022-11-25T06:30:19;6.72;;;2.10;;
42036;SDS011;30340;52.004;5.908;2022-11-25T06:32:45;6.38;;;2.20;;
42036;SDS011;30340;52.004;5.908;2022-11-25T06:35:11;9.07;;;2.40;;
42036;SDS011;30340;52.004;5.908;2022-11-25T06:37:37;6.97;;;2.13;;
42036;SDS011;30340;52.004;5.908;2022-11-25T06:40:03;3.97;;;1.83;;
42036;SDS011;30340;52.004;5.908;2022-11-25T06:42:29;4.50;;;1.92;;
42036;SDS011;30340;52.004;5.908;2022-11-25T06:44:55;5.38;;;2.05;;
42036;SDS011;30340;52.004;5.908;2022-11-25T06:47:21;5.80;;;1.90;;
42036;SDS011;30340;52.004;5.908;2022-11-25T06:49:46;5.97;;;2.00;;
42036;SDS011;30340;52.004;5.908;2022-11-25T06:52:12;6.80;;;2.00;;
42036;SDS011;30340;52.004;5.908;2022-11-25T06:54:38;7.32;;;1.95;;
42036;SDS011;30340;52.004;5.908;2022-11-25T06:57:08;5.32;;;1.77;;
42036;SDS011;30340;52.004;5.908;2022-11-25T06:59:35;8.52;;;2.55;;
42036;SDS011;30340;52.004;5.908;2022-11-25T07:02:01;7.05;;;2.00;;
42036;SDS011;30340;52.004;5.908;2022-11-25T07:04:27;6.10;;;2.33;;
42036;SDS011;30340;52.004;5.908;2022-11-25T07:06:53;8.30;;;2.47;;
42036;SDS011;30340;52.004;5.908;2022-11-25T07:09:18;4.78;;;2.20;;
42036;SDS011;30340;52.004;5.908;2022-11-25T07:11:46;9.88;;;2.40;;
42036;SDS011;30340;52.004;5.908;2022-11-25T07:14:13;5.72;;;2.22;;
42036;SDS011;30340;52.004;5.908;2022-11-25T07:16:41;5.93;;;2.28;;
42036;SDS011;30340;52.004;5.908;2022-11-25T07:19:09;8.60;;;2.92;;
42036;SDS011;30340;52.004;5.908;2022-11-25T07:21:36;6.93;;;2.30;;
42036;SDS011;30340;52.004;5.908;2022-11-25T07:24:03;6.47;;;2.20;;
42036;SDS011;30340;52.004;5.908;2022-11-25T07:26:31;5.55;;;2.38;;
42036;SDS011;30340;52.004;5.908;2022-11-25T07:29:00;7.40;;;2.85;;
42036;SDS011;30340;52.004;5.908;2022-11-25T07:31:32;6.65;;;2.70;;
42036;SDS011;30340;52.004;5.908;2022-11-25T07:34:04;6.72;;;2.38;;
42036;SDS011;30340;52.004;5.908;2022-11-25T07:36:35;5.03;;;2.10;;
42036;SDS011;30340;52.004;5.908;2022-11-25T07:39:02;9.15;;;2.55;;
42036;SDS011;30340;52.004;5.908;2022-11-25T07:41:30;5.30;;;2.05;;
42036;SDS011;30340;52.004;5.908;2022-11-25T07:44:02;4.85;;;2.20;;
42036;SDS011;30340;52.004;5.908;2022-11-25T07:46:30;6.13;;;2.40;;
42036;SDS011;30340;52.004;5.908;2022-11-25T07:49:02;6.47;;;2.65;;
42036;SDS011;30340;52.004;5.908;2022-11-25T07:51:48;7.40;;;2.50;;
42036;SDS011;30340;52.004;5.908;2022-11-25T07:54:17;4.68;;;2.00;;
42036;SDS011;30340;52.004;5.908;2022-11-25T07:56:43;5.60;;;2.00;;
42036;SDS011;30340;52.004;5.908;2022-11-25T07:59:11;5.18;;;2.22;;
42036;SDS011;30340;52.004;5.908;2022-11-25T08:01:37;5.68;;;1.90;;
42036;SDS011;30340;52.004;5.908;2022-11-25T08:04:05;7.25;;;2.40;;
42036;SDS011;30340;52.004;5.908;2022-11-25T08:06:35;5.65;;;2.42;;
42036;SDS011;30340;52.004;5.908;2022-11-25T08:09:06;9.38;;;2.85;;
42036;SDS011;30340;52.004;5.908;2022-11-25T08:11:33;8.98;;;3.38;;
42036;SDS011;30340;52.004;5.908;2022-11-25T08:13:59;7.03;;;2.53;;
42036;SDS011;30340;52.004;5.908;2022-11-25T08:16:26;5.85;;;2.60;;
42036;SDS011;30340;52.004;5.908;2022-11-25T08:18:55;9.75;;;3.15;;
42036;SDS011;30340;52.004;5.908;2022-11-25T08:21:21;7.57;;;2.30;;
42036;SDS011;30340;52.004;5.908;2022-11-25T08:23:47;8.60;;;2.88;;
42036;SDS011;30340;52.004;5.908;2022-11-25T08:26:24;7.47;;;2.72;;
42036;SDS011;30340;52.004;5.908;2022-11-25T08:28:52;7.60;;;2.83;;
42036;SDS011;30340;52.004;5.908;2022-11-25T08:31:19;9.52;;;2.58;;
42036;SDS011;30340;52.004;5.908;2022-11-25T08:33:46;7.07;;;2.63;;
42036;SDS011;30340;52.004;5.908;2022-11-25T08:36:13;6.72;;;2.90;;
42036;SDS011;30340;52.004;5.908;2022-11-25T08:38:39;7.63;;;2.60;;
42036;SDS011;30340;52.004;5.908;2022-11-25T08:41:13;6.85;;;3.28;;
42036;SDS011;30340;52.004;5.908;2022-11-25T08:43:47;7.05;;;2.65;;
42036;SDS011;30340;52.004;5.908;2022-11-25T08:46:15;5.78;;;2.60;;
42036;SDS011;30340;52.004;5.908;2022-11-25T08:48:42;6.38;;;3.00;;
42036;SDS011;30340;52.004;5.908;2022-11-25T08:51:10;6.38;;;2.30;;
42036;SDS011;30340;52.004;5.908;2022-11-25T08:53:38;6.75;;;2.78;;
42036;SDS011;30340;52.004;5.908;2022-11-25T08:56:04;5.25;;;2.50;;
42036;SDS011;30340;52.004;5.908;2022-11-25T08:58:31;5.75;;;2.83;;
42036;SDS011;30340;52.004;5.908;2022-11-25T09:00:56;5.88;;;2.78;;
42036;SDS011;30340;52.004;5.908;2022-11-25T09:03:22;8.20;;;3.35;;
42036;SDS011;30340;52.004;5.908;2022-11-25T09:05:48;6.22;;;2.88;;
42036;SDS011;30340;52.004;5.908;2022-11-25T09:08:14;9.05;;;3.00;;
42036;SDS011;30340;52.004;5.908;2022-11-25T09:10:40;6.30;;;2.63;;
42036;SDS011;30340;52.004;5.908;2022-11-25T09:13:06;7.72;;;2.45;;
42036;SDS011;30340;52.004;5.908;2022-11-25T09:15:34;7.10;;;3.33;;
42036;SDS011;30340;52.004;5.908;2022-11-25T09:18:03;6.47;;;2.92;;
42036;SDS011;30340;52.004;5.908;2022-11-25T09:20:32;9.70;;;3.25;;
42036;SDS011;30340;52.004;5.908;2022-11-25T09:22:59;5.80;;;2.60;;
42036;SDS011;30340;52.004;5.908;2022-11-25T09:25:25;7.43;;;2.47;;
42036;SDS011;30340;52.004;5.908;2022-11-25T09:27:51;7.25;;;2.60;;
42036;SDS011;30340;52.004;5.908;2022-11-25T09:30:17;5.35;;;2.60;;
42036;SDS011;30340;52.004;5.908;2022-11-25T09:32:42;6.43;;;2.78;;
42036;SDS011;30340;52.004;5.908;2022-11-25T09:35:08;6.40;;;2.60;;
42036;SDS011;30340;52.004;5.908;2022-11-25T09:37:34;9.07;;;2.70;;
42036;SDS011;30340;52.004;5.908;2022-11-25T09:40:00;6.10;;;2.53;;
42036;SDS011;30340;52.004;5.908;2022-11-25T09:45:23;6.28;;;2.70;;
42036;SDS011;30340;52.004;5.908;2022-11-25T09:48:28;5.43;;;2.42;;
42036;SDS011;30340;52.004;5.908;2022-11-25T09:51:25;7.13;;;2.42;;
42036;SDS011;30340;52.004;5.908;2022-11-25T09:54:02;8.27;;;3.05;;
42036;SDS011;30340;52.004;5.908;2022-11-25T09:56:45;5.78;;;2.67;;
42036;SDS011;30340;52.004;5.908;2022-11-25T10:01:47;6.63;;;2.50;;
42036;SDS011;30340;52.004;5.908;2022-11-25T10:07:07;9.93;;;3.17;;
42036;SDS011;30340;52.004;5.908;2022-11-25T10:09:38;6.20;;;2.80;;
42036;SDS011;30340;52.004;5.908;2022-11-25T10:12:10;4.88;;;2.60;;
42036;SDS011;30340;52.004;5.908;2022-11-25T10:14:47;7.88;;;2.50;;
42036;SDS011;30340;52.004;5.908;2022-11-25T10:19:58;7.18;;;3.28;;
42036;SDS011;30340;52.004;5.908;2022-11-25T10:25:04;7.75;;;3.30;;
42036;SDS011;30340;52.004;5.908;2022-11-25T10:27:40;4.53;;;2.47;;
42036;SDS011;30340;52.004;5.908;2022-11-25T10:30:17;6.72;;;3.33;;
42036;SDS011;30340;52.004;5.908;2022-11-25T10:33:03;6.05;;;3.05;;
42036;SDS011;30340;52.004;5.908;2022-11-25T10:35:56;7.63;;;3.25;;
42036;SDS011;30340;52.004;5.908;2022-11-25T10:38:40;6.13;;;3.05;;
42036;SDS011;30340;52.004;5.908;2022-11-25T10:41:15;7.07;;;3.03;;
42036;SDS011;30340;52.004;5.908;2022-11-25T10:43:43;6.05;;;3.38;;
42036;SDS011;30340;52.004;5.908;2022-11-25T10:51:49;8.07;;;3.40;;
42036;SDS011;30340;52.004;5.908;2022-11-25T10:54:19;8.80;;;3.40;;
42036;SDS011;30340;52.004;5.908;2022-11-25T10:59:28;8.68;;;4.38;;
42036;SDS011;30340;52.004;5.908;2022-11-25T11:02:13;8.73;;;3.83;;
42036;SDS011;30340;52.004;5.908;2022-11-25T11:04:59;9.15;;;3.85;;
42036;SDS011;30340;52.004;5.908;2022-11-25T11:07:35;9.32;;;3.92;;
42036;SDS011;30340;52.004;5.908;2022-11-25T11:13:00;9.32;;;3.70;;
42036;SDS011;30340;52.004;5.908;2022-11-25T11:15:31;7.45;;;3.45;;
42036;SDS011;30340;52.004;5.908;2022-11-25T11:18:29;6.95;;;3.33;;
42036;SDS011;30340;52.004;5.908;2022-11-25T11:21:01;8.70;;;3.38;;
42036;SDS011;30340;52.004;5.908;2022-11-25T11:23:29;9.23;;;3.28;;
42036;SDS011;30340;52.004;5.908;2022-11-25T11:31:01;6.93;;;2.80;;
42036;SDS011;30340;52.004;5.908;2022-11-25T11:36:10;7.55;;;3.10;;
42036;SDS011;30340;52.004;5.908;2022-11-25T11:38:52;5.13;;;2.80;;
42036;SDS011;30340;52.004;5.908;2022-11-25T11:43:52;8.85;;;3.03;;
42036;SDS011;30340;52.004;5.908;2022-11-25T11:46:26;7.28;;;3.15;;
42036;SDS011;30340;52.004;5.908;2022-11-25T11:56:46;6.33;;;2.40;;
42036;SDS011;30340;52.004;5.908;2022-11-25T12:09:48;7.07;;;2.90;;
42036;SDS011;30340;52.004;5.908;2022-11-25T12:12:21;6.88;;;3.20;;
42036;SDS011;30340;52.004;5.908;2022-11-25T12:15:00;9.18;;;3.10;;
42036;SDS011;30340;52.004;5.908;2022-11-25T12:17:33;8.27;;;2.88;;
42036;SDS011;30340;52.004;5.908;2022-11-25T12:22:39;6.68;;;2.55;;
42036;SDS011;30340;52.004;5.908;2022-11-25T12:25:20;9.57;;;3.50;;
42036;SDS011;30340;52.004;5.908;2022-11-25T12:30:22;8.80;;;3.45;;
42036;SDS011;30340;52.004;5.908;2022-11-25T12:41:20;6.90;;;2.53;;
42036;SDS011;30340;52.004;5.908;2022-11-25T12:44:13;7.38;;;2.33;;
42036;SDS011;30340;52.004;5.908;2022-11-25T12:46:44;6.78;;;2.42;;
42036;SDS011;30340;52.004;5.908;2022-11-25T12:49:29;6.80;;;2.85;;
42036;SDS011;30340;52.004;5.908;2022-11-25T12:54:55;8.93;;;2.90;;
42036;SDS011;30340;52.004;5.908;2022-11-25T12:57:39;7.93;;;3.03;;
42036;SDS011;30340;52.004;5.908;2022-11-25T13:00:20;6.93;;;2.67;;
42036;SDS011;30340;52.004;5.908;2022-11-25T13:03:03;9.13;;;2.60;;
42036;SDS011;30340;52.004;5.908;2022-11-25T13:14:26;9.07;;;2.92;;
42036;SDS011;30340;52.004;5.908;2022-11-25T13:17:10;8.13;;;2.45;;
42036;SDS011;30340;52.004;5.908;2022-11-25T13:19:38;7.18;;;2.38;;
42036;SDS011;30340;52.004;5.908;2022-11-25T13:22:04;5.78;;;2.30;;
42036;SDS011;30340;52.004;5.908;2022-11-25T13:24:51;8.02;;;2.63;;
42036;SDS011;30340;52.004;5.908;2022-11-25T13:27:29;6.80;;;2.50;;
42036;SDS011;30340;52.004;5.908;2022-11-25T13:29:57;6.75;;;2.40;;
42036;SDS011;30340;52.004;5.908;2022-11-25T13:32:34;7.75;;;2.53;;
42036;SDS011;30340;52.004;5.908;2022-11-25T13:37:46;7.85;;;2.47;;
42036;SDS011;30340;52.004;5.908;2022-11-25T13:42:47;8.00;;;2.40;;
42036;SDS011;30340;52.004;5.908;2022-11-25T13:45:29;7.00;;;2.58;;
42036;SDS011;30340;52.004;5.908;2022-11-25T13:48:03;7.45;;;2.60;;
42036;SDS011;30340;52.004;5.908;2022-11-25T13:50:31;8.10;;;2.33;;
42036;SDS011;30340;52.004;5.908;2022-11-25T13:53:04;8.20;;;2.60;;
42036;SDS011;30340;52.004;5.908;2022-11-25T13:55:41;5.93;;;2.40;;
42036;SDS011;30340;52.004;5.908;2022-11-25T14:08:29;8.88;;;2.60;;
42036;SDS011;30340;52.004;5.908;2022-11-25T14:11:31;6.68;;;2.20;;
42036;SDS011;30340;52.004;5.908;2022-11-25T14:14:14;9.52;;;2.60;;
42036;SDS011;30340;52.004;5.908;2022-11-25T14:19:41;10.88;;;2.70;;
42036;SDS011;30340;52.004;5.908;2022-11-25T14:25:10;9.03;;;2.60;;
42036;SDS011;30340;52.004;5.908;2022-11-25T14:27:45;7.95;;;2.30;;
42036;SDS011;30340;52.004;5.908;2022-11-25T14:30:14;8.35;;;2.42;;
42036;SDS011;30340;52.004;5.908;2022-11-25T14:35:34;6.47;;;2.03;;
42036;SDS011;30340;52.004;5.908;2022-11-25T14:38:06;4.65;;;1.90;;
42036;SDS011;30340;52.004;5.908;2022-11-25T14:40:50;5.53;;;2.08;;
42036;SDS011;30340;52.004;5.908;2022-11-25T14:43:22;5.70;;;2.08;;
42036;SDS011;30340;52.004;5.908;2022-11-25T14:46:08;6.45;;;2.33;;
42036;SDS011;30340;52.004;5.908;2022-11-25T14:48:36;7.68;;;2.45;;
42036;SDS011;30340;52.004;5.908;2022-11-25T14:51:03;8.30;;;2.20;;
42036;SDS011;30340;52.004;5.908;2022-11-25T14:53:44;5.80;;;2.20;;
42036;SDS011;30340;52.004;5.908;2022-11-25T14:56:12;7.82;;;2.40;;
42036;SDS011;30340;52.004;5.908;2022-11-25T14:58:40;10.00;;;2.90;;
42036;SDS011;30340;52.004;5.908;2022-11-25T15:01:23;8.68;;;2.40;;
42036;SDS011;30340;52.004;5.908;2022-11-25T15:06:41;6.10;;;2.55;;
42036;SDS011;30340;52.004;5.908;2022-11-25T15:09:25;9.38;;;2.67;;
42036;SDS011;30340;52.004;5.908;2022-11-25T15:11:55;8.73;;;2.80;;
42036;SDS011;30340;52.004;5.908;2022-11-25T15:14:32;8.57;;;2.90;;
42036;SDS011;30340;52.004;5.908;2022-11-25T15:17:05;9.02;;;2.88;;
42036;SDS011;30340;52.004;5.908;2022-11-25T15:19:33;5.93;;;2.22;;
42036;SDS011;30340;52.004;5.908;2022-11-25T15:22:01;8.13;;;2.67;;
42036;SDS011;30340;52.004;5.908;2022-11-25T15:24:39;8.57;;;3.00;;
42036;SDS011;30340;52.004;5.908;2022-11-25T15:27:12;8.50;;;2.70;;
42036;SDS011;30340;52.004;5.908;2022-11-25T15:29:43;7.65;;;2.50;;
42036;SDS011;30340;52.004;5.908;2022-11-25T15:32:13;7.13;;;2.40;;
42036;SDS011;30340;52.004;5.908;2022-11-25T15:34:43;8.93;;;3.20;;
42036;SDS011;30340;52.004;5.908;2022-11-25T15:37:10;11.40;;;2.78;;
42036;SDS011;30340;52.004;5.908;2022-11-25T15:39:37;9.60;;;2.95;;
42036;SDS011;30340;52.004;5.908;2022-11-25T15:44:37;10.15;;;3.70;;
42036;SDS011;30340;52.004;5.908;2022-11-25T15:49:41;12.05;;;3.72;;
42036;SDS011;30340;52.004;5.908;2022-11-25T15:52:16;8.15;;;3.38;;
42036;SDS011;30340;52.004;5.908;2022-11-25T15:54:48;17.60;;;6.63;;
42036;SDS011;30340;52.004;5.908;2022-11-25T16:02:26;10.35;;;4.10;;
42036;SDS011;30340;52.004;5.908;2022-11-25T16:12:43;11.40;;;3.47;;
42036;SDS011;30340;52.004;5.908;2022-11-25T16:15:15;14.20;;;3.78;;
42036;SDS011;30340;52.004;5.908;2022-11-25T16:17:41;11.23;;;3.38;;
42036;SDS011;30340;52.004;5.908;2022-11-25T16:20:16;9.90;;;3.47;;
42036;SDS011;30340;52.004;5.908;2022-11-25T16:22:43;12.45;;;3.63;;
42036;SDS011;30340;52.004;5.908;2022-11-25T16:25:09;11.55;;;3.83;;
42036;SDS011;30340;52.004;5.908;2022-11-25T16:27:36;8.82;;;3.03;;
42036;SDS011;30340;52.004;5.908;2022-11-25T16:32:31;9.02;;;2.97;;
42036;SDS011;30340;52.004;5.908;2022-11-25T16:35:09;9.13;;;3.17;;
42036;SDS011;30340;52.004;5.908;2022-11-25T16:37:36;10.60;;;3.10;;
42036;SDS011;30340;52.004;5.908;2022-11-25T16:40:01;11.35;;;3.72;;
42036;SDS011;30340;52.004;5.908;2022-11-25T16:42:27;10.85;;;3.58;;
42036;SDS011;30340;52.004;5.908;2022-11-25T16:44:53;13.23;;;4.07;;
42036;SDS011;30340;52.004;5.908;2022-11-25T16:47:19;13.27;;;3.97;;
42036;SDS011;30340;52.004;5.908;2022-11-25T16:49:46;11.88;;;3.88;;
42036;SDS011;30340;52.004;5.908;2022-11-25T16:52:12;10.00;;;3.47;;
42036;SDS011;30340;52.004;5.908;2022-11-25T16:54:38;7.63;;;3.38;;
42036;SDS011;30340;52.004;5.908;2022-11-25T16:57:04;11.93;;;4.50;;
42036;SDS011;30340;52.004;5.908;2022-11-25T16:59:32;13.10;;;3.95;;
42036;SDS011;30340;52.004;5.908;2022-11-25T17:02:00;11.45;;;4.15;;
42036;SDS011;30340;52.004;5.908;2022-11-25T17:04:26;11.90;;;3.80;;
42036;SDS011;30340;52.004;5.908;2022-11-25T17:06:53;11.02;;;3.83;;
42036;SDS011;30340;52.004;5.908;2022-11-25T17:09:19;12.38;;;4.00;;
42036;SDS011;30340;52.004;5.908;2022-11-25T17:11:46;12.32;;;4.00;;
42036;SDS011;30340;52.004;5.908;2022-11-25T17:14:28;10.93;;;4.18;;
42036;SDS011;30340;52.004;5.908;2022-11-25T17:16:57;16.40;;;7.57;;